Terminal Aerodrome Forecast
Issued by NWS Brownsville, TX

Home | Current Version | Previous Version | Text Only | Print | Product List | Glossary On
Versions: 1 2 3 4 5 6 7 8 9 10
000
FTUS44 KBRO 261100
TAFBRO
TAF
KBRO 261120Z 2612/2712 15015KT P6SM OVC050
     FM261600 17023G30KT P6SM SCT050
     FM262300 16013KT P6SM BKN040
     FM270300 16008KT 6SM BR BKN030=

USA.gov is the U.S. government's official web portal to all federal, state and local government web resources and services.